sensor_id;sensor_type;location;lat;lon;timestamp;pressure;altitude;pressure_sealevel;temperature;humidity
70925;BME280;58577;52.410;13.242;2022-09-09T00:04:12;100613.47;;;12.65;100.00
70925;BME280;58577;52.410;13.242;2022-09-09T00:11:01;100609.59;;;12.59;100.00
70925;BME280;58577;52.410;13.242;2022-09-09T00:13:27;100607.09;;;12.57;100.00
70925;BME280;58577;52.410;13.242;2022-09-09T00:16:21;100604.88;;;12.53;100.00
70925;BME280;58577;52.410;13.242;2022-09-09T00:22:17;100598.28;;;12.47;100.00
70925;BME280;58577;52.410;13.242;2022-09-09T00:25:12;100592.38;;;12.44;100.00
70925;BME280;58577;52.410;13.242;2022-09-09T00:28:02;100585.72;;;12.56;100.00
70925;BME280;58577;52.410;13.242;2022-09-09T00:30:50;100596.47;;;12.48;100.00
70925;BME280;58577;52.410;13.242;2022-09-09T00:33:36;100600.81;;;12.41;100.00
70925;BME280;58577;52.410;13.242;2022-09-09T00:36:26;100592.06;;;12.38;100.00
70925;BME280;58577;52.410;13.242;2022-09-09T00:39:38;100594.22;;;12.35;100.00
70925;BME280;58577;52.410;13.242;2022-09-09T00:42:41;100582.56;;;12.26;100.00
70925;BME280;58577;52.410;13.242;2022-09-09T00:48:32;100586.41;;;12.15;100.00
70925;BME280;58577;52.410;13.242;2022-09-09T00:51:45;100588.88;;;12.09;100.00
70925;BME280;58577;52.410;13.242;2022-09-09T00:54:40;100586.84;;;12.03;100.00
70925;BME280;58577;52.410;13.242;2022-09-09T00:57:35;100587.88;;;12.02;100.00
70925;BME280;58577;52.410;13.242;2022-09-09T01:00:31;100586.16;;;12.00;100.00
70925;BME280;58577;52.410;13.242;2022-09-09T01:03:37;100585.31;;;12.00;100.00
70925;BME280;58577;52.410;13.242;2022-09-09T01:06:31;100581.16;;;12.06;100.00
70925;BME280;58577;52.410;13.242;2022-09-09T01:12:43;100599.91;;;11.97;100.00
70925;BME280;58577;52.410;13.242;2022-09-09T01:15:37;100596.38;;;11.97;100.00
70925;BME280;58577;52.410;13.242;2022-09-09T01:18:35;100594.53;;;11.97;100.00
70925;BME280;58577;52.410;13.242;2022-09-09T01:21:35;100595.72;;;11.95;100.00
70925;BME280;58577;52.410;13.242;2022-09-09T01:24:38;100598.03;;;11.90;100.00
70925;BME280;58577;52.410;13.242;2022-09-09T01:27:43;100601.16;;;11.85;100.00
70925;BME280;58577;52.410;13.242;2022-09-09T01:30:31;100599.66;;;11.83;100.00
70925;BME280;58577;52.410;13.242;2022-09-09T01:33:19;100601.66;;;11.80;100.00
70925;BME280;58577;52.410;13.242;2022-09-09T01:36:29;100594.72;;;11.78;100.00
70925;BME280;58577;52.410;13.242;2022-09-09T01:39:20;100603.13;;;11.75;100.00
70925;BME280;58577;52.410;13.242;2022-09-09T01:42:15;100592.00;;;11.70;100.00
70925;BME280;58577;52.410;13.242;2022-09-09T01:45:02;100595.53;;;11.70;100.00
70925;BME280;58577;52.410;13.242;2022-09-09T01:47:49;100599.84;;;11.63;100.00
70925;BME280;58577;52.410;13.242;2022-09-09T01:50:44;100594.94;;;11.58;100.00
70925;BME280;58577;52.410;13.242;2022-09-09T01:53:31;100595.81;;;11.59;100.00
70925;BME280;58577;52.410;13.242;2022-09-09T02:05:37;100600.75;;;11.46;100.00
70925;BME280;58577;52.410;13.242;2022-09-09T02:11:45;100602.25;;;11.48;100.00
70925;BME280;58577;52.410;13.242;2022-09-09T02:14:56;100603.25;;;11.47;100.00
70925;BME280;58577;52.410;13.242;2022-09-09T02:17:50;100602.94;;;11.50;100.00
70925;BME280;58577;52.410;13.242;2022-09-09T02:20:38;100603.25;;;11.47;100.00
70925;BME280;58577;52.410;13.242;2022-09-09T02:23:24;100602.16;;;11.58;100.00
70925;BME280;58577;52.410;13.242;2022-09-09T02:26:15;100601.97;;;11.51;100.00
70925;BME280;58577;52.410;13.242;2022-09-09T02:29:17;100597.38;;;11.44;100.00
70925;BME280;58577;52.410;13.242;2022-09-09T02:32:08;100607.25;;;11.43;100.00
70925;BME280;58577;52.410;13.242;2022-09-09T02:35:05;100600.91;;;11.44;100.00
70925;BME280;58577;52.410;13.242;2022-09-09T02:37:55;100596.84;;;11.40;100.00
70925;BME280;58577;52.410;13.242;2022-09-09T02:40:44;100595.97;;;11.39;100.00
70925;BME280;58577;52.410;13.242;2022-09-09T02:43:33;100601.66;;;11.36;100.00
70925;BME280;58577;52.410;13.242;2022-09-09T02:55:54;100602.75;;;11.26;100.00
70925;BME280;58577;52.410;13.242;2022-09-09T02:58:43;100604.75;;;11.24;100.00
70925;BME280;58577;52.410;13.242;2022-09-09T03:01:29;100603.22;;;11.21;100.00
70925;BME280;58577;52.410;13.242;2022-09-09T03:04:15;100607.06;;;11.18;100.00
70925;BME280;58577;52.410;13.242;2022-09-09T03:07:01;100611.91;;;11.15;100.00
70925;BME280;58577;52.410;13.242;2022-09-09T03:09:48;100614.88;;;11.12;100.00
70925;BME280;58577;52.410;13.242;2022-09-09T03:12:34;100612.34;;;11.10;100.00
70925;BME280;58577;52.410;13.242;2022-09-09T03:15:21;100613.66;;;11.06;100.00
70925;BME280;58577;52.410;13.242;2022-09-09T03:18:07;100610.41;;;11.02;100.00
70925;BME280;58577;52.410;13.242;2022-09-09T03:20:53;100615.66;;;11.04;100.00
70925;BME280;58577;52.410;13.242;2022-09-09T03:23:40;100615.97;;;11.01;100.00
70925;BME280;58577;52.410;13.242;2022-09-09T03:26:26;100619.34;;;11.03;100.00
70925;BME280;58577;52.410;13.242;2022-09-09T03:29:12;100625.41;;;11.05;100.00
70925;BME280;58577;52.410;13.242;2022-09-09T03:31:59;100623.16;;;11.00;100.00
70925;BME280;58577;52.410;13.242;2022-09-09T03:34:45;100627.69;;;11.00;100.00
70925;BME280;58577;52.410;13.242;2022-09-09T03:37:33;100624.59;;;10.95;100.00
70925;BME280;58577;52.410;13.242;2022-09-09T03:40:19;100628.31;;;10.94;100.00
70925;BME280;58577;52.410;13.242;2022-09-09T03:43:05;100629.84;;;10.96;100.00
70925;BME280;58577;52.410;13.242;2022-09-09T03:45:53;100626.31;;;10.96;100.00
70925;BME280;58577;52.410;13.242;2022-09-09T03:48:39;100630.53;;;10.98;100.00
70925;BME280;58577;52.410;13.242;2022-09-09T03:51:25;100622.78;;;10.95;100.00
70925;BME280;58577;52.410;13.242;2022-09-09T03:54:11;100616.56;;;10.95;100.00
70925;BME280;58577;52.410;13.242;2022-09-09T03:56:57;100612.50;;;10.91;100.00
70925;BME280;58577;52.410;13.242;2022-09-09T03:59:43;100625.84;;;10.82;100.00
70925;BME280;58577;52.410;13.242;2022-09-09T04:02:29;100616.06;;;10.81;100.00
70925;BME280;58577;52.410;13.242;2022-09-09T04:05:15;100613.94;;;10.85;100.00
70925;BME280;58577;52.410;13.242;2022-09-09T04:08:02;100613.56;;;10.80;100.00
70925;BME280;58577;52.410;13.242;2022-09-09T04:10:49;100617.56;;;10.76;100.00
70925;BME280;58577;52.410;13.242;2022-09-09T04:13:37;100626.03;;;10.71;100.00
70925;BME280;58577;52.410;13.242;2022-09-09T04:16:26;100630.88;;;10.68;100.00
70925;BME280;58577;52.410;13.242;2022-09-09T04:19:13;100628.72;;;10.71;100.00
70925;BME280;58577;52.410;13.242;2022-09-09T04:22:01;100636.09;;;10.69;100.00
70925;BME280;58577;52.410;13.242;2022-09-09T04:24:47;100638.47;;;10.72;100.00
70925;BME280;58577;52.410;13.242;2022-09-09T04:27:33;100634.78;;;10.73;100.00
70925;BME280;58577;52.410;13.242;2022-09-09T04:30:20;100633.66;;;10.76;100.00
70925;BME280;58577;52.410;13.242;2022-09-09T04:33:07;100635.34;;;10.77;100.00
70925;BME280;58577;52.410;13.242;2022-09-09T04:35:53;100635.47;;;10.75;100.00
70925;BME280;58577;52.410;13.242;2022-09-09T04:38:43;100646.91;;;10.77;100.00
70925;BME280;58577;52.410;13.242;2022-09-09T04:41:30;100642.69;;;10.75;100.00
70925;BME280;58577;52.410;13.242;2022-09-09T04:44:17;100646.31;;;10.84;100.00
70925;BME280;58577;52.410;13.242;2022-09-09T04:47:03;100641.19;;;10.90;100.00
70925;BME280;58577;52.410;13.242;2022-09-09T04:49:49;100645.72;;;10.90;100.00
70925;BME280;58577;52.410;13.242;2022-09-09T04:52:35;100651.63;;;10.93;100.00
70925;BME280;58577;52.410;13.242;2022-09-09T04:55:21;100648.06;;;10.93;100.00
70925;BME280;58577;52.410;13.242;2022-09-09T04:58:08;100649.47;;;10.97;100.00
70925;BME280;58577;52.410;13.242;2022-09-09T05:00:54;100655.38;;;11.00;100.00
70925;BME280;58577;52.410;13.242;2022-09-09T05:03:40;100655.91;;;11.04;100.00
70925;BME280;58577;52.410;13.242;2022-09-09T05:06:29;100654.63;;;11.08;100.00
70925;BME280;58577;52.410;13.242;2022-09-09T05:09:19;100648.25;;;11.09;100.00
70925;BME280;58577;52.410;13.242;2022-09-09T05:12:06;100651.50;;;11.13;100.00
70925;BME280;58577;52.410;13.242;2022-09-09T05:14:55;100651.00;;;11.17;100.00
70925;BME280;58577;52.410;13.242;2022-09-09T05:17:41;100650.72;;;11.20;100.00
70925;BME280;58577;52.410;13.242;2022-09-09T05:20:28;100647.56;;;11.25;100.00
70925;BME280;58577;52.410;13.242;2022-09-09T05:23:14;100648.09;;;11.29;100.00
70925;BME280;58577;52.410;13.242;2022-09-09T05:26:02;100648.66;;;11.32;100.00
70925;BME280;58577;52.410;13.242;2022-09-09T05:28:49;100642.81;;;11.37;100.00
70925;BME280;58577;52.410;13.242;2022-09-09T05:31:35;100648.56;;;11.42;100.00
70925;BME280;58577;52.410;13.242;2022-09-09T05:34:24;100650.63;;;11.48;100.00
70925;BME280;58577;52.410;13.242;2022-09-09T05:37:10;100655.38;;;11.54;100.00
70925;BME280;58577;52.410;13.242;2022-09-09T05:39:56;100657.44;;;11.60;100.00
70925;BME280;58577;52.410;13.242;2022-09-09T05:42:43;100654.34;;;11.73;100.00
70925;BME280;58577;52.410;13.242;2022-09-09T05:45:29;100649.50;;;11.77;100.00
70925;BME280;58577;52.410;13.242;2022-09-09T05:48:15;100663.31;;;11.82;100.00
70925;BME280;58577;52.410;13.242;2022-09-09T05:51:01;100669.78;;;11.89;100.00
70925;BME280;58577;52.410;13.242;2022-09-09T05:53:48;100664.78;;;11.94;100.00
70925;BME280;58577;52.410;13.242;2022-09-09T05:56:34;100662.47;;;11.99;100.00
70925;BME280;58577;52.410;13.242;2022-09-09T05:59:20;100668.88;;;12.07;100.00
70925;BME280;58577;52.410;13.242;2022-09-09T06:02:10;100666.25;;;12.15;100.00
70925;BME280;58577;52.410;13.242;2022-09-09T06:04:56;100670.81;;;12.23;100.00
70925;BME280;58577;52.410;13.242;2022-09-09T06:07:43;100680.63;;;12.32;100.00
70925;BME280;58577;52.410;13.242;2022-09-09T06:10:30;100685.53;;;12.36;100.00
70925;BME280;58577;52.410;13.242;2022-09-09T06:13:16;100685.06;;;12.41;100.00
70925;BME280;58577;52.410;13.242;2022-09-09T06:16:03;100690.00;;;12.54;100.00
70925;BME280;58577;52.410;13.242;2022-09-09T06:18:51;100684.66;;;12.62;100.00
70925;BME280;58577;52.410;13.242;2022-09-09T06:21:38;100689.53;;;12.67;100.00
70925;BME280;58577;52.410;13.242;2022-09-09T06:24:26;100687.38;;;12.70;100.00
70925;BME280;58577;52.410;13.242;2022-09-09T06:27:12;100690.28;;;12.77;100.00
70925;BME280;58577;52.410;13.242;2022-09-09T06:29:59;100699.34;;;12.84;100.00
70925;BME280;58577;52.410;13.242;2022-09-09T06:32:45;100695.53;;;12.95;100.00
70925;BME280;58577;52.410;13.242;2022-09-09T06:35:31;100687.31;;;13.05;100.00
70925;BME280;58577;52.410;13.242;2022-09-09T06:38:17;100689.34;;;13.11;100.00
70925;BME280;58577;52.410;13.242;2022-09-09T06:41:04;100683.81;;;13.21;100.00
70925;BME280;58577;52.410;13.242;2022-09-09T06:43:52;100687.56;;;13.36;100.00
70925;BME280;58577;52.410;13.242;2022-09-09T06:46:47;100695.66;;;13.93;100.00
70925;BME280;58577;52.410;13.242;2022-09-09T06:49:33;100688.53;;;15.59;100.00
70925;BME280;58577;52.410;13.242;2022-09-09T06:52:22;100688.56;;;17.59;100.00
70925;BME280;58577;52.410;13.242;2022-09-09T06:55:10;100706.66;;;18.23;89.29
70925;BME280;58577;52.410;13.242;2022-09-09T06:57:56;100699.28;;;18.80;81.89
70925;BME280;58577;52.410;13.242;2022-09-09T07:00:43;100682.75;;;19.50;83.11
70925;BME280;58577;52.410;13.242;2022-09-09T07:03:29;100683.78;;;19.42;83.56
70925;BME280;58577;52.410;13.242;2022-09-09T07:06:17;100707.69;;;19.60;78.67
70925;BME280;58577;52.410;13.242;2022-09-09T07:09:07;100685.56;;;19.01;84.56
70925;BME280;58577;52.410;13.242;2022-09-09T07:11:54;100693.63;;;18.40;89.25
70925;BME280;58577;52.410;13.242;2022-09-09T07:14:43;100685.09;;;17.43;89.20
70925;BME280;58577;52.410;13.242;2022-09-09T07:17:29;100687.69;;;16.79;94.38
70925;BME280;58577;52.410;13.242;2022-09-09T07:20:16;100692.88;;;16.80;98.19
70925;BME280;58577;52.410;13.242;2022-09-09T07:23:02;100691.06;;;16.66;100.00
70925;BME280;58577;52.410;13.242;2022-09-09T07:25:49;100686.81;;;16.78;97.24
70925;BME280;58577;52.410;13.242;2022-09-09T07:28:36;100687.78;;;16.70;97.54
70925;BME280;58577;52.410;13.242;2022-09-09T07:31:28;100688.34;;;16.81;99.64
70925;BME280;58577;52.410;13.242;2022-09-09T07:34:16;100692.59;;;17.05;100.00
70925;BME280;58577;52.410;13.242;2022-09-09T07:37:02;100693.84;;;17.02;100.00
70925;BME280;58577;52.410;13.242;2022-09-09T07:39:48;100704.97;;;16.93;95.97
70925;BME280;58577;52.410;13.242;2022-09-09T07:42:36;100695.19;;;17.13;97.91
70925;BME280;58577;52.410;13.242;2022-09-09T07:45:23;100700.31;;;17.23;100.00
70925;BME280;58577;52.410;13.242;2022-09-09T07:48:09;100699.38;;;17.52;97.59
70925;BME280;58577;52.410;13.242;2022-09-09T07:51:07;100698.50;;;17.52;96.99
70925;BME280;58577;52.410;13.242;2022-09-09T07:53:56;100707.22;;;17.25;96.48
70925;BME280;58577;52.410;13.242;2022-09-09T07:56:46;100713.25;;;17.42;100.00
70925;BME280;58577;52.410;13.242;2022-09-09T07:59:32;100717.25;;;17.46;100.00
70925;BME280;58577;52.410;13.242;2022-09-09T08:02:19;100713.31;;;17.27;100.00
70925;BME280;58577;52.410;13.242;2022-09-09T08:05:08;100716.47;;;17.53;100.00
70925;BME280;58577;52.410;13.242;2022-09-09T08:07:55;100718.41;;;17.59;100.00
70925;BME280;58577;52.410;13.242;2022-09-09T08:10:40;100726.28;;;17.32;100.00
70925;BME280;58577;52.410;13.242;2022-09-09T08:13:27;100720.63;;;17.12;98.40
70925;BME280;58577;52.410;13.242;2022-09-09T08:16:19;100726.72;;;16.99;98.85
70925;BME280;58577;52.410;13.242;2022-09-09T08:19:10;100725.91;;;16.84;95.67
70925;BME280;58577;52.410;13.242;2022-09-09T08:21:56;100727.13;;;16.96;96.14
70925;BME280;58577;52.410;13.242;2022-09-09T08:24:42;100724.00;;;17.14;96.74
70925;BME280;58577;52.410;13.242;2022-09-09T08:27:28;100732.84;;;17.23;95.72
70925;BME280;58577;52.410;13.242;2022-09-09T08:30:14;100734.03;;;17.35;94.86
70925;BME280;58577;52.410;13.242;2022-09-09T08:33:00;100726.19;;;17.40;95.35
70925;BME280;58577;52.410;13.242;2022-09-09T08:35:50;100725.13;;;17.41;96.04
70925;BME280;58577;52.410;13.242;2022-09-09T08:38:39;100727.25;;;17.46;100.00
70925;BME280;58577;52.410;13.242;2022-09-09T08:47:55;100730.03;;;17.31;96.99
70925;BME280;58577;52.410;13.242;2022-09-09T08:50:44;100722.13;;;17.36;96.45
70925;BME280;58577;52.410;13.242;2022-09-09T08:53:45;100731.59;;;17.40;97.32
70925;BME280;58577;52.410;13.242;2022-09-09T08:56:33;100727.16;;;17.54;100.00
70925;BME280;58577;52.410;13.242;2022-09-09T08:59:20;100726.50;;;17.74;96.63
70925;BME280;58577;52.410;13.242;2022-09-09T09:05:14;100744.69;;;18.51;92.40
70925;BME280;58577;52.410;13.242;2022-09-09T09:08:33;100742.25;;;18.70;92.45
70925;BME280;58577;52.410;13.242;2022-09-09T09:11:23;100742.81;;;18.86;85.06
70925;BME280;58577;52.410;13.242;2022-09-09T09:17:20;100753.31;;;20.78;75.87
70925;BME280;58577;52.410;13.242;2022-09-09T09:20:14;100780.47;;;22.27;72.05
70925;BME280;58577;52.410;13.242;2022-09-09T09:23:03;100796.09;;;22.63;67.58
70925;BME280;58577;52.410;13.242;2022-09-09T09:25:55;100808.09;;;23.24;66.55
70925;BME280;58577;52.410;13.242;2022-09-09T09:37:35;100793.75;;;24.55;61.96
70925;BME280;58577;52.410;13.242;2022-09-09T09:40:13;100834.38;;;25.29;57.05
70925;BME280;58577;52.410;13.242;2022-09-09T09:43:00;100854.97;;;23.95;54.79
70925;BME280;58577;52.410;13.242;2022-09-09T09:45:47;100832.72;;;24.92;55.21
70925;BME280;58577;52.410;13.242;2022-09-09T09:48:35;100800.44;;;25.64;56.51
70925;BME280;58577;52.410;13.242;2022-09-09T09:51:22;100830.03;;;25.45;53.39
70925;BME280;58577;52.410;13.242;2022-09-09T09:57:12;100739.06;;;23.22;62.52
70925;BME280;58577;52.410;13.242;2022-09-09T10:00:20;100711.09;;;22.46;64.57
70925;BME280;58577;52.410;13.242;2022-09-09T10:03:29;100737.72;;;23.43;62.96
70925;BME280;58577;52.410;13.242;2022-09-09T10:06:16;100767.97;;;23.18;60.31
70925;BME280;58577;52.410;13.242;2022-09-09T10:09:04;100741.66;;;23.17;61.77
70925;BME280;58577;52.410;13.242;2022-09-09T10:18:25;100778.72;;;22.76;59.46
70925;BME280;58577;52.410;13.242;2022-09-09T10:31:16;100836.22;;;25.52;54.73
70925;BME280;58577;52.410;13.242;2022-09-09T10:37:35;100846.13;;;25.82;48.39
70925;BME280;58577;52.410;13.242;2022-09-09T10:55:37;100773.03;;;25.98;51.93
70925;BME280;58577;52.410;13.242;2022-09-09T10:58:34;100726.59;;;25.84;56.10
70925;BME280;58577;52.410;13.242;2022-09-09T11:01:44;100771.97;;;25.70;51.80
70925;BME280;58577;52.410;13.242;2022-09-09T11:07:44;100757.69;;;25.85;51.94
70925;BME280;58577;52.410;13.242;2022-09-09T11:10:41;100761.25;;;25.85;51.92
70925;BME280;58577;52.410;13.242;2022-09-09T11:13:56;100745.84;;;25.67;52.94
70925;BME280;58577;52.410;13.242;2022-09-09T11:16:51;100744.09;;;25.78;52.44
70925;BME280;58577;52.410;13.242;2022-09-09T11:19:39;100778.91;;;24.91;49.57
70925;BME280;58577;52.410;13.242;2022-09-09T11:22:33;100765.97;;;25.27;49.44
70925;BME280;58577;52.410;13.242;2022-09-09T11:25:22;100745.91;;;25.27;51.95
70925;BME280;58577;52.410;13.242;2022-09-09T11:31:20;100755.13;;;23.49;52.77
70925;BME280;58577;52.410;13.242;2022-09-09T11:34:17;100727.88;;;23.54;55.04
70925;BME280;58577;52.410;13.242;2022-09-09T11:40:24;100701.38;;;24.84;57.20
70925;BME280;58577;52.410;13.242;2022-09-09T11:43:23;100748.75;;;24.21;52.85
70925;BME280;58577;52.410;13.242;2022-09-09T11:46:10;100723.25;;;24.32;54.86
70925;BME280;58577;52.410;13.242;2022-09-09T11:49:04;100737.69;;;24.75;52.29
70925;BME280;58577;52.410;13.242;2022-09-09T11:51:50;100748.16;;;24.78;50.85
70925;BME280;58577;52.410;13.242;2022-09-09T11:54:46;100720.38;;;25.15;53.39
70925;BME280;58577;52.410;13.242;2022-09-09T11:57:35;100762.16;;;25.28;48.80
70925;BME280;58577;52.410;13.242;2022-09-09T12:00:39;100733.38;;;25.19;50.88
70925;BME280;58577;52.410;13.242;2022-09-09T12:03:50;100750.09;;;24.53;49.56
70925;BME280;58577;52.410;13.242;2022-09-09T12:06:50;100740.53;;;24.32;49.02
70925;BME280;58577;52.410;13.242;2022-09-09T12:12:41;100723.22;;;24.79;49.59
70925;BME280;58577;52.410;13.242;2022-09-09T12:15:28;100697.72;;;25.36;51.61
70925;BME280;58577;52.410;13.242;2022-09-09T12:18:31;100681.16;;;24.62;53.88
70925;BME280;58577;52.410;13.242;2022-09-09T12:21:44;100667.97;;;24.11;54.76
70925;BME280;58577;52.410;13.242;2022-09-09T12:25:09;100711.31;;;23.91;49.65
70925;BME280;58577;52.410;13.242;2022-09-09T12:28:11;100683.09;;;23.48;52.83
70925;BME280;58577;52.410;13.242;2022-09-09T12:34:10;100660.41;;;22.99;55.02
70925;BME280;58577;52.410;13.242;2022-09-09T12:37:15;100654.84;;;23.06;56.15
70925;BME280;58577;52.410;13.242;2022-09-09T12:40:19;100696.06;;;22.55;53.44
70925;BME280;58577;52.410;13.242;2022-09-09T12:43:22;100645.94;;;22.62;57.93
70925;BME280;58577;52.410;13.242;2022-09-09T12:46:17;100645.25;;;22.66;60.82
70925;BME280;58577;52.410;13.242;2022-09-09T12:49:26;100659.91;;;22.72;58.43
70925;BME280;58577;52.410;13.242;2022-09-09T12:52:19;100694.94;;;22.63;54.99
70925;BME280;58577;52.410;13.242;2022-09-09T12:55:06;100684.84;;;22.45;56.32
70925;BME280;58577;52.410;13.242;2022-09-09T12:57:54;100678.66;;;22.50;57.08
70925;BME280;58577;52.410;13.242;2022-09-09T13:00:49;100672.81;;;22.46;58.99
70925;BME280;58577;52.410;13.242;2022-09-09T13:03:42;100655.34;;;22.29;61.85
70925;BME280;58577;52.410;13.242;2022-09-09T13:06:30;100694.69;;;22.03;57.26
70925;BME280;58577;52.410;13.242;2022-09-09T13:09:16;100707.78;;;21.94;56.23
70925;BME280;58577;52.410;13.242;2022-09-09T13:12:04;100681.63;;;22.05;58.53
70925;BME280;58577;52.410;13.242;2022-09-09T13:14:53;100699.59;;;21.94;56.90
70925;BME280;58577;52.410;13.242;2022-09-09T13:17:40;100678.59;;;21.94;59.92
70925;BME280;58577;52.410;13.242;2022-09-09T13:20:27;100652.59;;;22.10;63.89
70925;BME280;58577;52.410;13.242;2022-09-09T13:23:14;100658.88;;;22.54;62.18
70925;BME280;58577;52.410;13.242;2022-09-09T13:26:06;100690.66;;;22.86;57.01
70925;BME280;58577;52.410;13.242;2022-09-09T13:28:54;100674.56;;;23.68;56.50
70925;BME280;58577;52.410;13.242;2022-09-09T13:31:40;100671.03;;;23.80;56.59
70925;BME280;58577;52.410;13.242;2022-09-09T13:34:31;100710.38;;;24.56;51.89
70925;BME280;58577;52.410;13.242;2022-09-09T13:37:33;100661.72;;;24.28;54.99
70925;BME280;58577;52.410;13.242;2022-09-09T13:40:21;100676.28;;;24.28;52.54
70925;BME280;58577;52.410;13.242;2022-09-09T13:43:19;100630.41;;;24.00;56.91
70925;BME280;58577;52.410;13.242;2022-09-09T13:52:23;100642.50;;;23.45;57.47
70925;BME280;58577;52.410;13.242;2022-09-09T13:55:09;100651.69;;;23.51;58.09
70925;BME280;58577;52.410;13.242;2022-09-09T13:58:03;100651.88;;;23.91;57.13
70925;BME280;58577;52.410;13.242;2022-09-09T14:00:52;100664.38;;;23.87;55.08
70925;BME280;58577;52.410;13.242;2022-09-09T14:03:38;100663.91;;;23.06;55.60
70925;BME280;58577;52.410;13.242;2022-09-09T14:06:24;100660.66;;;22.79;56.73
70925;BME280;58577;52.410;13.242;2022-09-09T14:09:12;100662.28;;;22.50;56.14
70925;BME280;58577;52.410;13.242;2022-09-09T14:11:58;100631.97;;;22.51;59.02
70925;BME280;58577;52.410;13.242;2022-09-09T14:14:45;100663.31;;;22.67;55.80
70925;BME280;58577;52.410;13.242;2022-09-09T14:17:31;100639.47;;;22.56;57.32
70925;BME280;58577;52.410;13.242;2022-09-09T14:20:16;100654.44;;;22.53;56.00
70925;BME280;58577;52.410;13.242;2022-09-09T14:23:03;100650.22;;;22.39;56.79
70925;BME280;58577;52.410;13.242;2022-09-09T14:25:48;100625.31;;;22.04;58.48
70925;BME280;58577;52.410;13.242;2022-09-09T14:28:35;100657.75;;;22.00;57.07
70925;BME280;58577;52.410;13.242;2022-09-09T14:31:25;100633.53;;;21.78;59.13
70925;BME280;58577;52.410;13.242;2022-09-09T14:34:10;100624.03;;;21.63;60.71
70925;BME280;58577;52.410;13.242;2022-09-09T14:36:56;100632.94;;;21.51;59.28
70925;BME280;58577;52.410;13.242;2022-09-09T14:39:43;100610.25;;;21.51;62.40
70925;BME280;58577;52.410;13.242;2022-09-09T14:45:15;100626.31;;;21.34;62.14
70925;BME280;58577;52.410;13.242;2022-09-09T14:48:01;100626.28;;;21.40;62.12
70925;BME280;58577;52.410;13.242;2022-09-09T14:50:48;100634.13;;;21.62;64.67
70925;BME280;58577;52.410;13.242;2022-09-09T14:53:35;100657.69;;;21.56;61.05
70925;BME280;58577;52.410;13.242;2022-09-09T14:56:23;100641.13;;;21.76;63.32
70925;BME280;58577;52.410;13.242;2022-09-09T14:59:09;100668.66;;;21.75;61.56
70925;BME280;58577;52.410;13.242;2022-09-09T15:01:55;100669.50;;;21.75;60.74
70925;BME280;58577;52.410;13.242;2022-09-09T15:04:41;100648.59;;;21.88;64.04
70925;BME280;58577;52.410;13.242;2022-09-09T15:07:27;100641.84;;;21.65;63.93
70925;BME280;58577;52.410;13.242;2022-09-09T15:10:14;100657.97;;;21.48;60.17
70925;BME280;58577;52.410;13.242;2022-09-09T15:13:00;100659.19;;;21.52;59.99
70925;BME280;58577;52.410;13.242;2022-09-09T15:15:45;100629.47;;;21.63;62.50
70925;BME280;58577;52.410;13.242;2022-09-09T15:18:32;100642.41;;;21.74;59.65
70925;BME280;58577;52.410;13.242;2022-09-09T15:21:20;100637.66;;;21.88;60.11
70925;BME280;58577;52.410;13.242;2022-09-09T15:24:06;100622.28;;;21.68;62.62
70925;BME280;58577;52.410;13.242;2022-09-09T15:26:53;100596.41;;;21.52;63.64
70925;BME280;58577;52.410;13.242;2022-09-09T15:37:55;100602.06;;;21.51;63.24
70925;BME280;58577;52.410;13.242;2022-09-09T15:40:43;100615.13;;;21.42;60.85
70925;BME280;58577;52.410;13.242;2022-09-09T15:43:29;100604.19;;;21.42;61.66
70925;BME280;58577;52.410;13.242;2022-09-09T15:46:34;100617.22;;;21.40;59.53
70925;BME280;58577;52.410;13.242;2022-09-09T15:49:23;100612.22;;;21.37;59.41
70925;BME280;58577;52.410;13.242;2022-09-09T15:52:12;100624.75;;;21.51;59.27
70925;BME280;58577;52.410;13.242;2022-09-09T15:54:58;100626.22;;;21.54;58.19
70925;BME280;58577;52.410;13.242;2022-09-09T15:57:43;100603.06;;;21.56;60.27
70925;BME280;58577;52.410;13.242;2022-09-09T16:00:29;100626.03;;;21.49;58.72
70925;BME280;58577;52.410;13.242;2022-09-09T16:03:15;100597.50;;;21.38;60.37
70925;BME280;58577;52.410;13.242;2022-09-09T16:06:02;100596.25;;;21.40;61.15
70925;BME280;58577;52.410;13.242;2022-09-09T16:08:51;100632.34;;;21.43;59.15
70925;BME280;58577;52.410;13.242;2022-09-09T16:11:38;100626.63;;;21.19;60.31
70925;BME280;58577;52.410;13.242;2022-09-09T16:14:24;100618.97;;;21.02;62.40
70925;BME280;58577;52.410;13.242;2022-09-09T16:17:11;100637.03;;;20.97;61.71
70925;BME280;58577;52.410;13.242;2022-09-09T16:19:57;100634.13;;;20.92;63.45
70925;BME280;58577;52.410;13.242;2022-09-09T16:22:43;100640.66;;;20.91;64.02
70925;BME280;58577;52.410;13.242;2022-09-09T16:25:29;100645.50;;;20.82;66.32
70925;BME280;58577;52.410;13.242;2022-09-09T16:28:14;100643.03;;;20.74;63.83
70925;BME280;58577;52.410;13.242;2022-09-09T16:31:04;100629.25;;;20.55;66.10
70925;BME280;58577;52.410;13.242;2022-09-09T16:33:50;100642.06;;;20.41;65.65
70925;BME280;58577;52.410;13.242;2022-09-09T16:36:38;100646.09;;;20.32;67.67
70925;BME280;58577;52.410;13.242;2022-09-09T16:39:25;100645.09;;;20.13;68.69
70925;BME280;58577;52.410;13.242;2022-09-09T16:42:11;100648.25;;;20.03;69.27